Time;durP1;ratioP1;P1;durP2;ratioP2;P2;SDS_P1;SDS_P2;PMS_P1;PMS_P2;Temp;Humidity;BMP_temperature;BMP_pressure;BME280_temperature;BME280_humidity;BME280_pressure;Samples;Min_cycle;Max_cycle;Signal;HPM_P1;HPM_P2
2022/05/26 00:01:00;;;;;;;59.50;35.90;;;;;;;20.55;92.63;99639.53;5113122;27;20186;-61
2022/05/26 00:03:26;;;;;;;52.40;35.27;;;;;;;20.48;93.27;99636.22;5113058;28;20190;-60
2022/05/26 00:05:53;;;;;;;57.13;36.80;;;;;;;20.41;93.60;99635.63;5112758;28;20251;-61
2022/05/26 00:08:20;;;;;;;57.03;38.67;;;;;;;20.28;94.53;99644.13;5112355;28;20253;-61
2022/05/26 00:10:46;;;;;;;53.03;38.40;;;;;;;20.24;94.82;99635.75;5112312;28;20664;-61
2022/05/26 00:13:14;;;;;;;57.90;39.17;;;;;;;20.18;95.67;99638.66;5112930;28;20190;-61
2022/05/26 00:15:41;;;;;;;56.07;40.73;;;;;;;20.21;95.73;99643.50;5112826;28;20195;-61
2022/05/26 00:18:08;;;;;;;58.83;39.27;;;;;;;20.10;96.23;99639.88;5112346;28;20250;-63
2022/05/26 00:20:35;;;;;;;59.37;40.73;;;;;;;20.07;96.38;99644.97;5112604;28;20260;-61
2022/05/26 00:23:02;;;;;;;55.90;37.60;;;;;;;20.11;97.14;99640.72;5113093;28;20194;-62
2022/05/26 00:25:30;;;;;;;56.80;38.43;;;;;;;20.00;97.11;99642.47;5112287;28;20576;-62
2022/05/26 00:27:56;;;;;;;59.23;40.47;;;;;;;19.97;97.38;99640.25;5112432;28;20229;-62
2022/05/26 00:30:24;;;;;;;57.93;38.77;;;;;;;20.02;97.52;99637.63;5112465;28;20187;-62
2022/05/26 00:32:51;;;;;;;56.30;39.50;;;;;;;20.08;97.18;99625.00;5112493;28;20202;-62
2022/05/26 00:35:18;;;;;;;59.57;39.83;;;;;;;19.99;96.87;99604.97;5112379;28;20194;-62
2022/05/26 00:37:45;;;;;;;57.53;39.07;;;;;;;20.09;96.74;99626.66;5112698;28;20194;-62
2022/05/26 00:40:14;;;;;;;57.10;38.40;;;;;;;20.07;97.09;99626.91;5112912;28;20198;-62
2022/05/26 00:42:41;;;;;;;54.27;38.10;;;;;;;20.02;96.33;99632.22;5112090;28;20551;-61
2022/05/26 00:45:09;;;;;;;58.33;39.00;;;;;;;19.95;96.75;99626.25;5112380;28;20187;-61
2022/05/26 00:47:44;;;;;;;55.83;39.20;;;;;;;20.01;97.01;99629.81;5112582;28;20198;-62
2022/05/26 00:50:18;;;;;;;53.43;38.43;;;;;;;19.99;96.83;99631.94;5112832;28;20217;-61
2022/05/26 00:52:50;;;;;;;55.20;38.57;;;;;;;20.03;96.50;99627.66;5112644;28;20190;-61
2022/05/26 00:55:21;;;;;;;54.37;37.40;;;;;;;20.08;95.98;99635.78;5112189;28;20720;-61
2022/05/26 00:57:51;;;;;;;50.47;36.87;;;;;;;20.07;95.89;99623.38;5115641;28;20220;-61
2022/05/26 01:00:21;;;;;;;55.13;37.40;;;;;;;20.09;95.65;99624.78;5115902;28;20216;-61
2022/05/26 01:03:03;;;;;;;50.70;35.97;;;;;;;20.06;95.53;99627.94;5117043;28;20194;-61
2022/05/26 01:05:36;;;;;;;49.30;36.93;;;;;;;19.92;96.23;99617.81;5115913;28;20179;-62
2022/05/26 01:08:11;;;;;;;49.43;37.10;;;;;;;19.98;96.18;99619.50;5116043;27;20240;-62
2022/05/26 01:10:38;;;;;;;51.57;36.47;;;;;;;20.00;96.14;99617.38;5116418;28;20603;-62
2022/05/26 01:13:04;;;;;;;56.53;39.60;;;;;;;19.91;96.35;99617.03;5115700;28;20194;-62
2022/05/26 01:15:37;;;;;;;53.93;37.60;;;;;;;19.94;96.51;99613.00;5115991;28;20190;-62
2022/05/26 01:18:15;;;;;;;63.67;39.20;;;;;;;19.95;96.19;99612.75;5116768;28;20235;-62
2022/05/26 01:20:58;;;;;;;55.37;39.43;;;;;;;19.88;96.40;99617.53;5115851;28;20647;-62
2022/05/26 01:23:56;;;;;;;56.07;37.80;;;;;;;19.80;97.42;99617.97;5115530;28;20655;-62
2022/05/26 01:26:55;;;;;;;58.00;39.77;;;;;;;19.80;97.82;99614.44;5115434;28;20647;-63
2022/05/26 01:29:51;;;;;;;55.53;38.63;;;;;;;19.76;98.00;99614.16;5116169;28;20267;-62
2022/05/26 01:32:25;;;;;;;58.23;37.87;;;;;;;19.84;97.87;99607.47;5115931;28;20186;-63
2022/05/26 01:35:01;;;;;;;60.43;39.27;;;;;;;19.88;97.51;99609.44;5116193;27;20239;-62
2022/05/26 01:37:34;;;;;;;53.87;38.50;;;;;;;19.78;97.40;99609.34;5115357;28;20186;-62
2022/05/26 01:40:09;;;;;;;52.10;37.80;;;;;;;19.88;97.42;99608.59;5116392;28;20240;-62
2022/05/26 01:42:43;;;;;;;53.73;38.50;;;;;;;19.80;97.18;99611.75;5116045;27;20236;-62
2022/05/26 01:45:20;;;;;;;53.73;37.57;;;;;;;19.85;98.27;99609.13;5115075;28;20543;-62
2022/05/26 01:47:56;;;;;;;52.70;37.97;;;;;;;19.89;97.41;99604.88;5115963;28;20190;-62
2022/05/26 01:50:31;;;;;;;59.57;38.80;;;;;;;19.96;97.27;99608.16;5115501;28;20226;-62
2022/05/26 01:53:08;;;;;;;51.60;38.27;;;;;;;19.89;97.03;99594.88;5115587;28;20243;-62
2022/05/26 01:55:41;;;;;;;52.07;36.93;;;;;;;19.99;96.25;99604.97;5115842;28;20608;-62
2022/05/26 01:58:13;;;;;;;60.90;41.27;;;;;;;19.79;96.38;99604.75;5114897;28;20179;-62
2022/05/26 02:00:40;;;;;;;58.30;39.80;;;;;;;19.63;97.70;99617.22;5115913;28;20187;-62
2022/05/26 02:03:12;;;;;;;57.10;38.43;;;;;;;19.63;98.64;99611.84;5114973;28;20194;-62
2022/05/26 02:05:43;;;;;;;57.40;38.03;;;;;;;19.60;98.80;99606.16;5114676;28;20194;-62
2022/05/26 02:08:15;;;;;;;59.13;39.40;;;;;;;19.59;99.01;99604.50;5113452;28;20640;-62
2022/05/26 02:10:47;;;;;;;61.50;40.73;;;;;;;19.47;98.88;99596.56;5114598;28;20191;-61
2022/05/26 02:13:20;;;;;;;57.63;39.50;;;;;;;19.48;99.41;99608.16;5115223;28;20239;-62
2022/05/26 02:15:48;;;;;;;58.80;39.60;;;;;;;19.56;99.12;99621.19;5115081;28;20307;-62
2022/05/26 02:18:22;;;;;;;56.40;39.93;;;;;;;19.57;98.71;99628.19;5114488;28;20202;-62
2022/05/26 02:20:54;;;;;;;60.43;39.20;;;;;;;19.61;98.72;99623.94;5114443;28;20230;-62
2022/05/26 02:23:27;;;;;;;57.60;39.60;;;;;;;19.66;98.27;99616.72;5115370;28;20183;-62
2022/05/26 02:25:54;;;;;;;55.53;38.87;;;;;;;19.69;97.66;99621.59;5115491;28;20243;-61
2022/05/26 02:28:21;;;;;;;56.73;39.47;;;;;;;19.59;97.68;99623.34;5114155;28;20252;-62
2022/05/26 02:30:48;;;;;;;56.53;40.07;;;;;;;19.53;98.14;99616.28;5114213;27;20194;-62
2022/05/26 02:33:18;;;;;;;54.53;40.07;;;;;;;19.41;98.30;99629.06;5114456;28;20201;-62
2022/05/26 02:35:47;;;;;;;59.90;40.53;;;;;;;19.28;98.72;99624.03;5114812;28;20194;-62
2022/05/26 02:38:16;;;;;;;59.67;41.50;;;;;;;19.28;99.39;99624.03;5115202;28;20253;-62
2022/05/26 02:40:44;;;;;;;61.87;41.23;;;;;;;19.34;98.67;99612.25;5114834;27;20190;-61
2022/05/26 02:43:16;;;;;;;61.30;40.47;;;;;;;19.38;98.84;99613.41;5114279;28;20194;-62
2022/05/26 02:45:55;;;;;;;63.73;40.00;;;;;;;19.20;98.96;99627.13;5113939;28;20186;-62
2022/05/26 02:48:38;;;;;;;58.40;40.43;;;;;;;19.31;98.98;99640.50;5114464;28;20270;-62
2022/05/26 02:51:12;;;;;;;66.10;40.03;;;;;;;19.40;98.78;99638.22;5113829;28;20185;-62
2022/05/26 02:53:44;;;;;;;66.70;41.47;;;;;;;19.39;98.42;99640.09;5113786;28;20273;-62
2022/05/26 02:56:18;;;;;;;60.80;39.97;;;;;;;19.40;98.39;99630.13;5113661;28;20646;-62
2022/05/26 02:58:52;;;;;;;66.00;40.10;;;;;;;19.43;98.42;99616.97;5113686;28;20189;-62
2022/05/26 03:01:25;;;;;;;60.17;38.80;;;;;;;19.46;98.12;99621.03;5114697;28;20186;-62
2022/05/26 03:03:58;;;;;;;59.63;39.23;;;;;;;19.31;98.49;99629.75;5113546;28;20183;-62
2022/05/26 03:06:30;;;;;;;58.20;40.23;;;;;;;19.23;98.84;99629.31;5113572;28;20655;-62
2022/05/26 03:08:58;;;;;;;54.30;39.53;;;;;;;19.30;99.49;99627.28;5113425;27;20213;-62
2022/05/26 03:11:27;;;;;;;59.83;40.00;;;;;;;19.34;98.78;99612.25;5114190;28;20248;-62
2022/05/26 03:13:55;;;;;;;57.23;40.37;;;;;;;19.35;98.47;99620.09;5113579;28;20736;-62
2022/05/26 03:16:22;;;;;;;59.33;39.43;;;;;;;19.42;99.27;99620.75;5113221;28;20664;-62
2022/05/26 03:18:51;;;;;;;53.13;39.03;;;;;;;19.45;98.98;99630.19;5113548;28;20202;-62
2022/05/26 03:21:19;;;;;;;66.20;39.87;;;;;;;19.54;98.47;99626.81;5112796;28;20204;-62
2022/05/26 03:23:46;;;;;;;59.77;39.20;;;;;;;19.64;97.46;99636.94;5114009;28;20191;-62
2022/05/26 03:26:13;;;;;;;56.27;37.67;;;;;;;19.59;97.14;99637.66;5113069;28;20655;-62
2022/05/26 03:28:39;;;;;;;62.77;39.50;;;;;;;19.70;96.97;99633.22;5112961;28;20667;-62
2022/05/26 03:31:07;;;;;;;50.97;37.07;;;;;;;19.83;96.41;99628.25;5113324;28;20652;-62
2022/05/26 03:41:44;;;;;;;51.37;35.37;;;;;;;20.21;93.64;99625.44;5113551;28;20184;-62
2022/05/26 03:44:11;;;;;;;53.90;34.50;;;;;;;20.24;92.77;99624.13;5113005;28;20246;-62
2022/05/26 03:46:38;;;;;;;52.17;36.33;;;;;;;20.30;92.77;99633.91;5112751;28;20664;-62
2022/05/26 03:49:05;;;;;;;52.97;35.87;;;;;;;20.43;91.64;99618.09;5113136;28;20231;-61
2022/05/26 03:51:32;;;;;;;52.43;36.20;;;;;;;20.62;90.75;99626.63;5113499;28;20182;-62
2022/05/26 03:54:00;;;;;;;52.43;37.90;;;;;;;20.77;89.73;99634.84;5112952;28;20190;-62
2022/05/26 03:56:27;;;;;;;50.93;35.07;;;;;;;20.86;89.05;99648.69;5113105;28;20194;-62
2022/05/26 03:58:54;;;;;;;33.30;27.33;;;;;;;21.05;89.22;99636.44;5112747;28;20190;-60
2022/05/26 04:01:21;;;;;;;105.27;39.37;;;;;;;21.58;87.64;99619.97;5113079;28;20194;-60
2022/05/26 04:03:48;;;;;;;50.10;32.77;;;;;;;21.93;82.85;99625.56;5113461;28;20208;-60
2022/05/26 04:06:16;;;;;;;41.13;30.77;;;;;;;22.41;81.67;99647.56;5113336;28;20193;-60
2022/05/26 04:08:42;;;;;;;46.10;30.10;;;;;;;22.96;80.17;99644.91;5112710;28;20218;-60
2022/05/26 04:11:10;;;;;;;41.83;30.93;;;;;;;23.51;76.24;99652.97;5112736;28;20190;-61
2022/05/26 04:13:37;;;;;;;39.47;29.40;;;;;;;24.15;73.60;99658.41;5112391;27;20199;-60
2022/05/26 04:16:05;;;;;;;51.87;30.17;;;;;;;24.75;73.72;99647.97;5112683;28;20228;-60
2022/05/26 04:18:31;;;;;;;48.70;28.87;;;;;;;25.39;71.64;99663.19;5112333;28;20653;-60
2022/05/26 04:21:04;;;;;;;44.60;29.87;;;;;;;26.09;67.99;99656.91;5112911;28;20214;-60
2022/05/26 04:23:31;;;;;;;43.43;26.87;;;;;;;26.49;63.15;99678.09;5113456;28;20236;-61
2022/05/26 04:25:58;;;;;;;33.30;25.03;;;;;;;26.98;62.92;99684.72;5112257;28;20248;-62
2022/05/26 04:28:26;;;;;;;35.90;25.30;;;;;;;27.40;60.22;99678.28;5112296;28;20224;-62
2022/05/26 04:30:53;;;;;;;37.40;27.60;;;;;;;27.79;57.82;99681.34;5112470;28;20215;-60
2022/05/26 04:33:19;;;;;;;38.57;26.63;;;;;;;28.09;56.19;99686.22;5116055;28;20190;-58
2022/05/26 04:35:46;;;;;;;36.33;26.30;;;;;;;28.45;55.66;99695.25;5116655;28;20243;-57
2022/05/26 04:38:13;;;;;;;38.17;27.37;;;;;;;28.79;54.53;99690.91;5117096;28;20616;-59
2022/05/26 04:40:40;;;;;;;37.43;27.10;;;;;;;28.73;53.76;99688.59;5116629;28;20194;-58
2022/05/26 04:43:07;;;;;;;36.33;24.77;;;;;;;28.54;55.01;99677.81;5116478;28;20190;-58
2022/05/26 04:45:35;;;;;;;43.27;27.77;;;;;;;28.94;53.42;99686.97;5116021;28;20267;-59
2022/05/26 04:48:01;;;;;;;35.27;26.13;;;;;;;28.78;53.24;99693.94;5115605;28;20195;-58
2022/05/26 04:50:28;;;;;;;42.90;27.33;;;;;;;28.41;54.46;99688.78;5115755;28;20226;-58
2022/05/26 04:52:55;;;;;;;32.33;25.77;;;;;;;28.57;54.34;99699.09;5116134;28;20190;-59
2022/05/26 04:55:21;;;;;;;36.07;25.00;;;;;;;28.80;54.39;99694.44;5116625;28;20191;-58
2022/05/26 04:57:52;;;;;;;43.90;25.23;;;;;;;29.10;53.41;99702.75;5115738;28;20199;-59
2022/05/26 05:00:20;;;;;;;37.53;25.67;;;;;;;29.41;52.66;99701.94;5114738;28;20280;-59
2022/05/26 05:02:48;;;;;;;27.03;22.47;;;;;;;29.58;51.71;99705.63;5116317;28;20256;-59
2022/05/26 05:05:14;;;;;;;26.63;20.50;;;;;;;29.79;51.35;99717.63;5115869;28;20190;-58
2022/05/26 05:07:41;;;;;;;36.07;25.93;;;;;;;30.05;49.70;99713.03;5115827;27;20590;-59
2022/05/26 05:10:09;;;;;;;33.07;22.57;;;;;;;30.23;48.78;99705.69;5116575;28;20218;-59
2022/05/26 05:12:36;;;;;;;26.30;20.43;;;;;;;29.92;50.35;99700.25;5115651;27;20195;-58
2022/05/26 05:15:05;;;;;;;25.67;20.77;;;;;;;29.54;51.44;99707.34;5132497;27;20190;-59
2022/05/26 05:17:31;;;;;;;32.93;23.30;;;;;;;29.31;52.17;99702.22;5136161;27;20254;-59
2022/05/26 05:19:59;;;;;;;32.63;24.37;;;;;;;29.21;52.56;99703.28;5136421;27;20198;-59
2022/05/26 05:22:33;;;;;;;67.53;27.53;;;;;;;29.05;53.33;99700.16;5136417;27;20229;-58
2022/05/26 05:25:03;;;;;;;40.00;23.57;;;;;;;28.97;52.95;99703.59;5135392;27;20185;-59
2022/05/26 05:27:35;;;;;;;28.93;22.77;;;;;;;28.85;53.82;99700.59;5133565;27;20190;-58
2022/05/26 05:30:07;;;;;;;32.27;23.77;;;;;;;28.77;54.64;99695.88;5131128;27;20306;-59
2022/05/26 05:32:38;;;;;;;34.30;24.10;;;;;;;28.82;54.09;99703.13;5127866;27;20242;-61
2022/05/26 05:35:11;;;;;;;30.30;22.37;;;;;;;28.77;54.77;99703.25;5131653;27;20265;-60
2022/05/26 05:37:38;;;;;;;46.27;27.23;;;;;;;28.78;54.51;99702.97;5133896;27;20712;-60
2022/05/26 05:40:07;;;;;;;39.80;26.47;;;;;;;28.37;56.61;99698.69;5133776;27;20277;-60
2022/05/26 05:42:34;;;;;;;28.00;24.07;;;;;;;28.08;57.48;99700.97;5134559;27;20190;-58
2022/05/26 05:45:01;;;;;;;43.20;28.47;;;;;;;28.02;58.02;99705.72;5134909;27;20194;-58
2022/05/26 05:47:27;;;;;;;36.63;27.27;;;;;;;27.94;59.35;99705.66;5133459;27;20194;-59
2022/05/26 05:49:54;;;;;;;38.17;25.23;;;;;;;27.75;59.20;99713.09;5132721;27;20509;-59
2022/05/26 05:52:24;;;;;;;32.37;22.37;;;;;;;27.73;59.07;99704.41;5133888;27;20194;-59
2022/05/26 05:54:51;;;;;;;44.93;26.00;;;;;;;27.73;59.91;99707.94;5132834;27;20198;-58
2022/05/26 05:57:18;;;;;;;36.43;24.17;;;;;;;27.58;60.66;99704.69;5133141;27;20281;-60
2022/05/26 05:59:45;;;;;;;29.63;22.70;;;;;;;27.62;60.33;99711.16;5133808;27;20202;-59
2022/05/26 06:02:11;;;;;;;30.07;22.67;;;;;;;27.70;60.06;99710.47;5133547;27;20205;-59
2022/05/26 06:04:42;;;;;;;30.63;23.13;;;;;;;27.75;60.04;99715.81;5136222;27;20198;-59
2022/05/26 06:07:14;;;;;;;35.63;22.50;;;;;;;27.73;59.97;99716.13;5133271;27;20188;-63
2022/05/26 06:09:43;;;;;;;35.47;22.63;;;;;;;27.47;61.10;99705.97;5133508;27;20210;-64
2022/05/26 06:12:10;;;;;;;34.53;22.67;;;;;;;27.62;60.89;99708.44;5132245;27;20647;-63
2022/05/26 06:14:37;;;;;;;43.77;22.43;;;;;;;27.48;60.88;99708.41;5133342;27;20321;-63
2022/05/26 06:17:05;;;;;;;39.60;21.00;;;;;;;27.54;61.10;99704.50;5134044;27;20202;-63
2022/05/26 06:19:32;;;;;;;33.47;21.47;;;;;;;27.64;60.83;99704.28;5134618;27;20189;-63
2022/05/26 06:21:59;;;;;;;32.33;19.67;;;;;;;27.71;60.10;99706.63;5134349;27;20200;-63
2022/05/26 06:24:26;;;;;;;34.57;21.07;;;;;;;27.95;59.25;99701.78;5133169;27;20193;-63
2022/05/26 06:26:54;;;;;;;36.50;19.93;;;;;;;28.25;58.80;99709.34;5133456;27;20194;-62
2022/05/26 06:37:38;;;;;;;36.43;19.30;;;;;;;29.28;55.45;99709.16;5134502;27;20215;-63
2022/05/26 06:40:06;;;;;;;34.70;18.77;;;;;;;29.39;55.92;99699.53;5133370;27;20240;-63
2022/05/26 06:42:34;;;;;;;32.43;17.77;;;;;;;29.70;54.34;99708.56;5133373;27;20548;-64
2022/05/26 06:45:01;;;;;;;28.03;17.50;;;;;;;29.98;53.37;99701.75;5134018;27;20254;-63
2022/05/26 06:47:28;;;;;;;43.70;17.07;;;;;;;30.06;52.59;99703.72;5133208;27;20194;-64
2022/05/26 06:49:55;;;;;;;90.30;19.13;;;;;;;30.21;52.63;99708.75;5133200;27;20229;-63
2022/05/26 06:52:24;;;;;;;40.87;17.43;;;;;;;30.53;52.31;99696.56;5132508;27;20333;-65
2022/05/26 06:54:51;;;;;;;37.60;15.37;;;;;;;30.67;50.94;99709.00;5132805;27;20190;-62
2022/05/26 06:57:18;;;;;;;43.17;15.27;;;;;;;30.79;50.21;99711.13;5131986;27;20616;-63
2022/05/26 06:59:46;;;;;;;22.33;12.50;;;;;;;30.94;49.68;99696.91;5131733;27;20229;-64
2022/05/26 07:02:14;;;;;;;36.10;12.70;;;;;;;31.07;47.41;99709.63;5131895;27;20189;-65
2022/05/26 07:04:42;;;;;;;23.77;11.83;;;;;;;31.10;48.65;99696.06;5145903;27;20246;-64
2022/05/26 07:07:12;;;;;;;16.17;10.07;;;;;;;31.14;47.87;99704.44;5152420;27;20201;-64
2022/05/26 07:09:38;;;;;;;47.17;12.37;;;;;;;31.30;47.70;99706.38;5153810;27;20193;-64
2022/05/26 07:12:06;;;;;;;26.53;10.23;;;;;;;31.27;45.21;99709.78;5152995;27;20219;-66
2022/05/26 07:14:34;;;;;;;48.97;10.67;;;;;;;31.33;43.73;99711.25;5152107;27;20573;-64
2022/05/26 07:17:03;;;;;;;19.27;9.10;;;;;;;31.48;42.26;99724.41;5131333;27;20190;-63
2022/05/26 07:19:33;;;;;;;22.83;8.27;;;;;;;31.62;41.10;99727.78;5131129;27;20194;-65
2022/05/26 07:22:00;;;;;;;24.93;8.63;;;;;;;31.77;39.91;99735.50;5131513;27;20747;-64
2022/05/26 07:24:27;;;;;;;21.03;8.50;;;;;;;31.87;39.71;99735.16;5130421;27;20667;-65
2022/05/26 07:26:53;;;;;;;22.87;7.83;;;;;;;31.94;38.91;99731.88;5132582;27;20197;-63
2022/05/26 07:29:20;;;;;;;15.30;7.73;;;;;;;31.98;38.08;99739.16;5132852;27;20645;-63
2022/05/26 07:31:47;;;;;;;11.97;7.30;;;;;;;32.11;38.29;99738.13;5133110;27;20591;-63
2022/05/26 07:34:15;;;;;;;25.17;8.03;;;;;;;31.86;38.53;99741.78;5133100;27;20193;-63
2022/05/26 07:42:14;;;;;;;32.20;9.03;;;;;;;32.31;38.28;99729.13;5113032;28;20185;-63
2022/05/26 07:44:44;;;;;;;30.80;9.43;;;;;;;32.26;36.74;99737.53;5112269;28;20244;-63
2022/05/26 07:47:12;;;;;;;25.77;8.57;;;;;;;32.29;37.25;99728.66;5112637;28;20252;-63
2022/05/26 07:49:43;;;;;;;19.43;8.00;;;;;;;32.71;36.87;99740.50;5112592;28;20299;-63
2022/05/26 07:52:11;;;;;;;31.13;8.50;;;;;;;32.65;35.08;99742.66;5112231;28;20206;-63
2022/05/26 07:54:38;;;;;;;25.50;7.57;;;;;;;33.00;35.10;99735.72;5112475;28;20240;-63
2022/05/26 07:57:06;;;;;;;32.87;8.77;;;;;;;33.36;34.64;99737.06;5111168;28;20282;-63
2022/05/26 07:59:34;;;;;;;17.30;7.73;;;;;;;33.66;34.16;99744.00;5112294;28;20222;-63
2022/05/26 08:02:00;;;;;;;27.80;8.00;;;;;;;33.63;34.38;99747.47;5112434;28;20198;-62
2022/05/26 08:04:27;;;;;;;21.85;8.07;;;;;;;33.12;33.46;99738.53;5112113;28;20220;-63
2022/05/26 08:06:55;;;;;;;16.52;6.60;;;;;;;33.29;33.44;99743.09;5111784;28;20667;-64
2022/05/26 08:09:23;;;;;;;6.93;6.18;;;;;;;33.35;34.08;99749.22;5110336;28;20244;-63
2022/05/26 08:11:50;;;;;;;22.55;6.53;;;;;;;33.57;30.59;99748.81;5132802;27;20285;-62
2022/05/26 08:14:16;;;;;;;21.90;6.57;;;;;;;33.69;31.21;99749.66;5152598;27;20658;-63
2022/05/26 08:16:43;;;;;;;11.18;5.72;;;;;;;33.93;31.51;99755.22;5153121;27;20189;-63
2022/05/26 08:19:10;;;;;;;15.45;6.53;;;;;;;34.12;30.59;99752.69;5153307;27;20304;-63
2022/05/26 08:21:37;;;;;;;34.55;6.55;;;;;;;34.05;30.65;99751.66;5150377;27;20203;-64
2022/05/26 08:24:06;;;;;;;18.08;6.82;;;;;;;34.08;30.92;99760.03;5151323;27;20189;-63
2022/05/26 08:26:33;;;;;;;25.27;6.90;;;;;;;34.29;30.28;99763.47;5152752;27;20193;-63
2022/05/26 08:29:00;;;;;;;56.17;9.57;;;;;;;33.68;30.04;99763.78;5151577;27;20189;-63
2022/05/26 08:31:27;;;;;;;29.45;8.93;;;;;;;34.09;30.05;99761.66;5152241;27;20234;-62
2022/05/26 08:33:54;;;;;;;15.80;7.57;;;;;;;34.14;30.49;99755.09;5153708;27;20185;-65
2022/05/26 08:36:24;;;;;;;23.00;7.45;;;;;;;33.98;30.06;99762.44;5152100;27;20249;-62
2022/05/26 08:38:51;;;;;;;13.30;7.00;;;;;;;34.02;29.83;99769.72;5152241;27;20217;-62
2022/05/26 08:41:22;;;;;;;33.58;8.55;;;;;;;33.96;30.08;99767.53;5138351;27;20198;-62
2022/05/26 08:43:54;;;;;;;21.20;6.07;;;;;;;34.31;29.36;99764.00;5132298;27;20247;-64
2022/05/26 08:46:21;;;;;;;49.28;8.45;;;;;;;34.11;29.54;99761.31;5129748;27;20182;-63
2022/05/26 08:48:59;;;;;;;26.50;6.32;;;;;;;33.86;29.40;99759.69;5129069;27;20190;-64
2022/05/26 08:51:37;;;;;;;22.08;7.20;;;;;;;33.98;29.75;99752.25;5130280;27;20716;-62
2022/05/26 08:54:06;;;;;;;19.27;6.13;;;;;;;33.89;29.36;99759.00;5130830;27;20185;-62
2022/05/26 08:56:34;;;;;;;23.50;6.15;;;;;;;34.12;29.23;99757.41;5131088;27;20194;-62
2022/05/26 08:59:07;;;;;;;22.58;6.80;;;;;;;34.16;29.24;99758.34;5131963;27;20243;-63
2022/05/26 09:01:33;;;;;;;23.10;6.90;;;;;;;34.45;29.62;99760.88;5131583;27;20647;-63
2022/05/26 09:04:01;;;;;;;19.77;6.40;;;;;;;34.60;29.25;99754.63;5131836;27;20242;-62
2022/05/26 09:06:30;;;;;;;18.83;5.78;;;;;;;34.44;29.46;99753.72;5130839;27;20277;-64
2022/05/26 09:14:32;;;;;;;16.85;6.40;;;;;;;35.06;29.44;99754.88;5151830;27;20217;-63
2022/05/26 09:17:03;;;;;;;20.10;5.40;;;;;;;35.43;28.18;99758.31;5151400;27;20193;-62
2022/05/26 09:19:50;;;;;;;17.42;6.28;;;;;;;35.68;28.11;99751.47;5155506;27;20238;-64
2022/05/26 09:22:28;;;;;;;19.20;5.70;;;;;;;35.32;27.82;99751.69;5155630;27;20208;-63
2022/05/26 09:24:55;;;;;;;16.40;6.10;;;;;;;35.19;28.15;99747.34;5154520;27;20181;-63
2022/05/26 09:27:29;;;;;;;14.70;5.93;;;;;;;34.80;28.61;99739.88;5140970;27;20683;-65
2022/05/26 09:33:02;;;;;;;18.75;6.50;;;;;;;35.08;28.96;99741.53;5133760;27;20193;-63
2022/05/26 09:35:31;;;;;;;19.50;5.50;;;;;;;35.11;28.66;99735.28;5135469;27;20193;-63
2022/05/26 09:38:00;;;;;;;15.23;5.57;;;;;;;35.09;28.86;99742.31;5134747;27;20246;-64
2022/05/26 09:40:29;;;;;;;28.77;5.97;;;;;;;34.83;27.17;99742.75;5133506;27;20246;-64
2022/05/26 09:43:03;;;;;;;33.67;5.65;;;;;;;35.03;26.51;99743.72;5133796;27;20820;-64
2022/05/26 09:45:41;;;;;;;20.50;5.07;;;;;;;35.09;25.55;99740.34;5133443;27;20720;-64
2022/05/26 09:48:16;;;;;;;25.90;5.32;;;;;;;34.74;24.83;99719.19;5133531;27;20218;-64
2022/05/26 09:50:46;;;;;;;15.30;4.05;;;;;;;35.08;25.27;99722.19;5133625;27;20384;-64
2022/05/26 09:53:14;;;;;;;29.92;5.88;;;;;;;34.93;24.82;99716.59;5133685;27;20178;-61
2022/05/26 09:55:46;;;;;;;18.08;4.57;;;;;;;35.15;24.04;99713.28;5133639;27;20641;-62
2022/05/26 09:58:27;;;;;;;9.95;3.78;;;;;;;35.21;24.45;99711.88;5133342;27;20186;-61
2022/05/26 10:00:55;;;;;;;27.23;4.97;;;;;;;34.89;24.30;99712.94;5128858;27;20259;-60
2022/05/26 10:03:32;;;;;;;12.13;4.10;;;;;;;34.78;24.06;99709.03;5134209;27;20186;-59
2022/05/26 10:06:12;;;;;;;21.27;4.85;;;;;;;34.95;24.38;99714.31;5134317;27;20187;-59
2022/05/26 10:08:46;;;;;;;16.75;4.05;;;;;;;34.89;23.86;99716.50;5135296;27;20291;-58
2022/05/26 10:11:19;;;;;;;9.88;4.07;;;;;;;34.89;24.13;99718.44;5137539;27;20209;-59
2022/05/26 10:14:06;;;;;;;8.10;4.45;;;;;;;35.21;24.32;99714.63;5155610;27;20650;-59
2022/05/26 10:16:41;;;;;;;14.63;4.15;;;;;;;35.38;24.51;99709.63;5149942;27;20190;-60
2022/05/26 10:19:22;;;;;;;16.73;3.72;;;;;;;35.73;23.83;99713.28;5133630;27;20243;-59
2022/05/26 10:22:01;;;;;;;14.68;4.00;;;;;;;35.85;23.53;99715.19;5132771;27;20618;-61
2022/05/26 10:24:52;;;;;;;13.45;4.53;;;;;;;35.31;24.28;99714.94;5134417;27;20204;-59
2022/05/26 10:27:36;;;;;;;9.98;4.38;;;;;;;35.41;24.78;99710.88;5134276;27;20614;-60
2022/05/26 10:30:21;;;;;;;9.30;4.88;;;;;;;35.49;24.49;99702.41;5128979;27;20197;-59
2022/05/26 10:33:01;;;;;;;8.50;4.03;;;;;;;35.76;24.90;99700.75;5133805;27;20634;-62
2022/05/26 10:35:36;;;;;;;8.70;3.75;;;;;;;36.08;24.80;99697.59;5134634;27;20185;-59
2022/05/26 10:38:28;;;;;;;6.95;3.97;;;;;;;36.24;24.54;99684.56;5132579;27;20182;-59
2022/05/26 10:41:06;;;;;;;21.13;4.68;;;;;;;35.72;24.94;99694.31;5125343;27;20198;-59
2022/05/26 10:43:42;;;;;;;17.55;4.78;;;;;;;35.91;24.75;99686.91;5128773;27;20740;-60
2022/05/26 10:46:10;;;;;;;90.30;7.78;;;;;;;35.40;25.32;99678.88;5111612;28;20251;-60
2022/05/26 10:48:41;;;;;;;11.45;5.00;;;;;;;35.41;25.68;99672.19;5112030;28;20739;-62
2022/05/26 10:51:12;;;;;;;14.60;4.88;;;;;;;35.37;25.49;99674.03;5112495;28;20222;-64
2022/05/26 10:53:46;;;;;;;7.00;3.95;;;;;;;35.57;25.15;99671.03;5111974;28;20247;-64
2022/05/26 10:56:21;;;;;;;15.15;4.05;;;;;;;35.19;25.34;99665.25;5111597;28;20194;-63
2022/05/26 10:58:52;;;;;;;21.23;4.72;;;;;;;35.21;25.70;99667.66;5111806;28;20269;-63
2022/05/26 11:01:33;;;;;;;13.32;5.18;;;;;;;35.25;25.90;99660.28;5111371;28;20244;-63
2022/05/26 11:04:10;;;;;;;14.88;4.65;;;;;;;35.41;25.63;99661.13;5116680;27;20185;-63
2022/05/26 11:06:40;;;;;;;12.10;4.57;;;;;;;35.56;25.75;99661.13;5132180;27;20193;-64
2022/05/26 11:09:16;;;;;;;9.05;3.95;;;;;;;36.02;25.39;99659.50;5132305;27;20545;-63
2022/05/26 11:11:46;;;;;;;15.48;4.60;;;;;;;36.31;25.85;99661.78;5131725;27;20217;-64
2022/05/26 11:17:24;;;;;;;9.40;3.88;;;;;;;36.02;24.48;99654.78;5131979;27;20181;-65
2022/05/26 11:19:56;;;;;;;11.95;3.92;;;;;;;36.06;24.43;99654.84;5127684;27;20190;-64
2022/05/26 11:22:24;;;;;;;18.90;4.72;;;;;;;35.63;25.29;99649.44;5140307;27;20273;-64
2022/05/26 11:24:53;;;;;;;11.88;5.15;;;;;;;35.79;25.41;99641.94;5152600;27;20230;-64
2022/05/26 11:27:29;;;;;;;7.35;4.30;;;;;;;35.91;26.01;99641.84;5132971;27;20553;-62
2022/05/26 11:30:00;;;;;;;25.23;5.05;;;;;;;35.78;25.74;99643.13;5130223;27;20242;-63
2022/05/26 11:38:14;;;;;;;10.90;4.68;;;;;;;35.58;26.02;99628.41;5132224;27;20185;-64
2022/05/26 11:40:48;;;;;;;18.35;4.85;;;;;;;35.59;25.88;99627.22;5131088;27;20239;-64
2022/05/26 11:43:24;;;;;;;10.93;4.57;;;;;;;35.93;26.23;99629.25;5131846;27;20197;-65
2022/05/26 11:45:53;;;;;;;6.55;4.70;;;;;;;36.04;25.14;99632.25;5131415;27;20182;-65
2022/05/26 11:48:42;;;;;;;10.18;4.00;;;;;;;36.00;25.91;99625.84;5128809;27;20252;-64
2022/05/26 11:51:31;;;;;;;7.15;4.15;;;;;;;35.86;26.16;99622.78;5131072;27;20182;-64
2022/05/26 11:53:59;;;;;;;14.85;5.63;;;;;;;35.92;26.52;99618.56;5131223;27;20179;-65
2022/05/26 11:56:45;;;;;;;7.40;4.22;;;;;;;36.04;25.70;99621.19;5131193;27;20829;-65
2022/05/26 11:59:42;;;;;;;8.82;4.55;;;;;;;35.99;25.36;99618.72;5131199;27;20226;-65
2022/05/26 12:02:28;;;;;;;14.77;4.75;;;;;;;36.02;26.06;99610.53;5131086;27;20200;-65
2022/05/26 12:04:56;;;;;;;13.32;4.65;;;;;;;36.22;25.36;99614.16;5128733;27;20250;-67
2022/05/26 12:07:40;;;;;;;15.00;5.68;;;;;;;36.36;24.77;99608.91;5131027;27;20584;-66
2022/05/26 12:10:22;;;;;;;11.73;4.10;;;;;;;36.22;24.95;99609.38;5131385;27;20246;-64
2022/05/26 12:12:49;;;;;;;39.13;5.90;;;;;;;36.19;24.69;99609.28;5131381;27;20210;-65
2022/05/26 12:15:20;;;;;;;14.80;4.30;;;;;;;35.79;25.38;99597.72;5131077;27;20734;-64
2022/05/26 12:17:49;;;;;;;8.35;4.50;;;;;;;35.58;25.96;99588.88;5128372;27;20250;-65